sensor_id;sensor_type;location;lat;lon;timestamp;P1;durP1;ratioP1;P2;durP2;ratioP2
66112;SDS011;52893;52.870;5.822;2022-10-31T00:00:09;9.90;;;3.85;;
66112;SDS011;52893;52.870;5.822;2022-10-31T00:02:37;8.13;;;3.97;;
66112;SDS011;52893;52.870;5.822;2022-10-31T00:05:05;12.38;;;4.57;;
66112;SDS011;52893;52.870;5.822;2022-10-31T00:07:34;9.25;;;4.00;;
66112;SDS011;52893;52.870;5.822;2022-10-31T00:10:01;13.52;;;4.85;;
66112;SDS011;52893;52.870;5.822;2022-10-31T00:12:28;11.40;;;4.90;;
66112;SDS011;52893;52.870;5.822;2022-10-31T00:14:55;16.25;;;4.60;;
66112;SDS011;52893;52.870;5.822;2022-10-31T00:17:22;14.20;;;5.53;;
66112;SDS011;52893;52.870;5.822;2022-10-31T00:19:49;9.50;;;4.68;;
66112;SDS011;52893;52.870;5.822;2022-10-31T00:22:16;11.80;;;5.32;;
66112;SDS011;52893;52.870;5.822;2022-10-31T00:24:45;15.50;;;5.65;;
66112;SDS011;52893;52.870;5.822;2022-10-31T00:27:12;13.52;;;5.32;;
66112;SDS011;52893;52.870;5.822;2022-10-31T00:29:39;15.38;;;5.80;;
66112;SDS011;52893;52.870;5.822;2022-10-31T00:32:06;9.25;;;5.03;;
66112;SDS011;52893;52.870;5.822;2022-10-31T00:34:34;16.45;;;4.85;;
66112;SDS011;52893;52.870;5.822;2022-10-31T00:37:01;13.18;;;5.72;;
66112;SDS011;52893;52.870;5.822;2022-10-31T00:39:28;13.52;;;5.18;;
66112;SDS011;52893;52.870;5.822;2022-10-31T00:41:56;15.23;;;5.38;;
66112;SDS011;52893;52.870;5.822;2022-10-31T00:44:23;13.95;;;4.97;;
66112;SDS011;52893;52.870;5.822;2022-10-31T00:46:52;13.55;;;5.60;;
66112;SDS011;52893;52.870;5.822;2022-10-31T00:49:21;13.80;;;5.82;;
66112;SDS011;52893;52.870;5.822;2022-10-31T00:51:48;14.35;;;6.57;;
66112;SDS011;52893;52.870;5.822;2022-10-31T00:54:16;17.77;;;6.18;;
66112;SDS011;52893;52.870;5.822;2022-10-31T00:56:43;10.98;;;5.93;;
66112;SDS011;52893;52.870;5.822;2022-10-31T00:59:12;13.55;;;6.88;;
66112;SDS011;52893;52.870;5.822;2022-10-31T01:01:39;14.10;;;7.18;;
66112;SDS011;52893;52.870;5.822;2022-10-31T01:04:06;15.55;;;6.90;;
66112;SDS011;52893;52.870;5.822;2022-10-31T01:06:33;16.00;;;7.22;;
66112;SDS011;52893;52.870;5.822;2022-10-31T01:09:00;16.75;;;6.93;;
66112;SDS011;52893;52.870;5.822;2022-10-31T01:11:27;11.98;;;6.82;;
66112;SDS011;52893;52.870;5.822;2022-10-31T01:13:54;19.27;;;8.05;;
66112;SDS011;52893;52.870;5.822;2022-10-31T01:16:24;16.05;;;7.80;;
66112;SDS011;52893;52.870;5.822;2022-10-31T01:18:52;12.60;;;6.63;;
66112;SDS011;52893;52.870;5.822;2022-10-31T01:21:21;22.08;;;7.43;;
66112;SDS011;52893;52.870;5.822;2022-10-31T01:23:49;18.63;;;6.78;;
66112;SDS011;52893;52.870;5.822;2022-10-31T01:26:17;14.52;;;6.55;;
66112;SDS011;52893;52.870;5.822;2022-10-31T01:28:46;13.48;;;6.07;;
66112;SDS011;52893;52.870;5.822;2022-10-31T01:31:16;14.45;;;5.80;;
66112;SDS011;52893;52.870;5.822;2022-10-31T01:33:45;13.40;;;6.57;;
66112;SDS011;52893;52.870;5.822;2022-10-31T01:36:15;13.27;;;6.95;;
66112;SDS011;52893;52.870;5.822;2022-10-31T01:38:43;15.27;;;7.15;;
66112;SDS011;52893;52.870;5.822;2022-10-31T01:41:11;12.77;;;7.05;;
66112;SDS011;52893;52.870;5.822;2022-10-31T01:43:44;13.23;;;7.25;;
66112;SDS011;52893;52.870;5.822;2022-10-31T01:48:40;12.98;;;6.93;;
66112;SDS011;52893;52.870;5.822;2022-10-31T01:51:09;17.70;;;7.38;;
66112;SDS011;52893;52.870;5.822;2022-10-31T01:53:40;15.07;;;7.97;;
66112;SDS011;52893;52.870;5.822;2022-10-31T01:56:08;12.05;;;6.95;;
66112;SDS011;52893;52.870;5.822;2022-10-31T01:58:37;19.38;;;8.00;;
66112;SDS011;52893;52.870;5.822;2022-10-31T02:01:04;19.42;;;7.25;;
66112;SDS011;52893;52.870;5.822;2022-10-31T02:03:31;14.20;;;6.88;;
66112;SDS011;52893;52.870;5.822;2022-10-31T02:05:59;13.30;;;6.88;;
66112;SDS011;52893;52.870;5.822;2022-10-31T02:08:28;12.43;;;7.43;;
66112;SDS011;52893;52.870;5.822;2022-10-31T02:10:58;16.00;;;7.25;;
66112;SDS011;52893;52.870;5.822;2022-10-31T02:13:26;15.10;;;7.15;;
66112;SDS011;52893;52.870;5.822;2022-10-31T02:15:56;15.77;;;6.88;;
66112;SDS011;52893;52.870;5.822;2022-10-31T02:18:26;16.13;;;7.38;;
66112;SDS011;52893;52.870;5.822;2022-10-31T02:20:58;16.90;;;7.55;;
66112;SDS011;52893;52.870;5.822;2022-10-31T02:23:40;16.73;;;7.15;;
66112;SDS011;52893;52.870;5.822;2022-10-31T02:26:27;20.95;;;8.25;;
66112;SDS011;52893;52.870;5.822;2022-10-31T02:29:25;14.50;;;6.65;;
66112;SDS011;52893;52.870;5.822;2022-10-31T02:32:07;11.95;;;7.18;;
66112;SDS011;52893;52.870;5.822;2022-10-31T02:34:42;14.25;;;7.47;;
66112;SDS011;52893;52.870;5.822;2022-10-31T02:37:19;14.63;;;7.47;;
66112;SDS011;52893;52.870;5.822;2022-10-31T02:39:50;14.27;;;7.35;;
66112;SDS011;52893;52.870;5.822;2022-10-31T02:42:39;19.02;;;8.30;;
66112;SDS011;52893;52.870;5.822;2022-10-31T02:45:19;16.67;;;7.75;;
66112;SDS011;52893;52.870;5.822;2022-10-31T02:47:54;15.40;;;7.50;;
66112;SDS011;52893;52.870;5.822;2022-10-31T02:50:26;14.60;;;7.43;;
66112;SDS011;52893;52.870;5.822;2022-10-31T02:52:56;12.38;;;7.35;;
66112;SDS011;52893;52.870;5.822;2022-10-31T02:58:26;13.57;;;7.53;;
66112;SDS011;52893;52.870;5.822;2022-10-31T03:01:01;13.70;;;7.70;;
66112;SDS011;52893;52.870;5.822;2022-10-31T03:03:40;14.60;;;8.52;;
66112;SDS011;52893;52.870;5.822;2022-10-31T03:06:23;16.50;;;8.57;;
66112;SDS011;52893;52.870;5.822;2022-10-31T03:09:00;17.65;;;9.13;;
66112;SDS011;52893;52.870;5.822;2022-10-31T03:11:32;22.50;;;9.63;;
66112;SDS011;52893;52.870;5.822;2022-10-31T03:14:09;25.77;;;10.10;;
66112;SDS011;52893;52.870;5.822;2022-10-31T03:16:43;21.77;;;10.02;;
66112;SDS011;52893;52.870;5.822;2022-10-31T03:19:15;14.75;;;9.70;;
66112;SDS011;52893;52.870;5.822;2022-10-31T03:21:47;18.23;;;9.77;;
66112;SDS011;52893;52.870;5.822;2022-10-31T03:24:20;18.65;;;9.75;;
66112;SDS011;52893;52.870;5.822;2022-10-31T03:26:52;14.20;;;8.60;;
66112;SDS011;52893;52.870;5.822;2022-10-31T03:29:22;16.20;;;8.70;;
66112;SDS011;52893;52.870;5.822;2022-10-31T03:31:54;15.13;;;8.18;;
66112;SDS011;52893;52.870;5.822;2022-10-31T03:34:26;13.95;;;7.07;;
66112;SDS011;52893;52.870;5.822;2022-10-31T03:36:58;15.82;;;8.40;;
66112;SDS011;52893;52.870;5.822;2022-10-31T03:39:30;9.43;;;6.30;;
66112;SDS011;52893;52.870;5.822;2022-10-31T03:41:59;15.15;;;9.15;;
66112;SDS011;52893;52.870;5.822;2022-10-31T03:44:30;18.63;;;8.43;;
66112;SDS011;52893;52.870;5.822;2022-10-31T03:47:01;17.80;;;9.18;;
66112;SDS011;52893;52.870;5.822;2022-10-31T03:49:32;14.45;;;9.85;;
66112;SDS011;52893;52.870;5.822;2022-10-31T03:52:01;19.98;;;9.50;;
66112;SDS011;52893;52.870;5.822;2022-10-31T03:54:35;20.40;;;9.50;;
66112;SDS011;52893;52.870;5.822;2022-10-31T03:57:06;17.85;;;9.85;;
66112;SDS011;52893;52.870;5.822;2022-10-31T03:59:43;16.80;;;9.85;;
66112;SDS011;52893;52.870;5.822;2022-10-31T04:02:14;17.75;;;10.13;;
66112;SDS011;52893;52.870;5.822;2022-10-31T04:04:45;15.77;;;9.93;;
66112;SDS011;52893;52.870;5.822;2022-10-31T04:07:14;16.20;;;9.40;;
66112;SDS011;52893;52.870;5.822;2022-10-31T04:09:43;15.60;;;9.35;;
66112;SDS011;52893;52.870;5.822;2022-10-31T04:12:13;17.77;;;9.15;;
66112;SDS011;52893;52.870;5.822;2022-10-31T04:14:46;19.35;;;8.23;;
66112;SDS011;52893;52.870;5.822;2022-10-31T04:17:17;20.05;;;8.02;;
66112;SDS011;52893;52.870;5.822;2022-10-31T04:19:49;88.22;;;8.32;;
66112;SDS011;52893;52.870;5.822;2022-10-31T04:22:17;73.57;;;8.18;;
66112;SDS011;52893;52.870;5.822;2022-10-31T04:24:44;59.65;;;8.18;;
66112;SDS011;52893;52.870;5.822;2022-10-31T04:27:14;50.58;;;9.88;;
66112;SDS011;52893;52.870;5.822;2022-10-31T04:29:42;39.53;;;9.40;;
66112;SDS011;52893;52.870;5.822;2022-10-31T04:32:09;54.70;;;11.05;;
66112;SDS011;52893;52.870;5.822;2022-10-31T04:34:37;36.10;;;10.35;;
66112;SDS011;52893;52.870;5.822;2022-10-31T04:37:05;61.92;;;10.88;;
66112;SDS011;52893;52.870;5.822;2022-10-31T04:39:33;45.03;;;12.23;;
66112;SDS011;52893;52.870;5.822;2022-10-31T04:42:18;51.53;;;10.93;;
66112;SDS011;52893;52.870;5.822;2022-10-31T04:44:45;67.57;;;11.82;;
66112;SDS011;52893;52.870;5.822;2022-10-31T04:47:13;41.38;;;9.73;;
66112;SDS011;52893;52.870;5.822;2022-10-31T04:49:42;25.83;;;10.30;;
66112;SDS011;52893;52.870;5.822;2022-10-31T04:52:12;16.75;;;10.07;;
66112;SDS011;52893;52.870;5.822;2022-10-31T04:54:40;22.95;;;10.63;;
66112;SDS011;52893;52.870;5.822;2022-10-31T04:57:42;16.98;;;9.15;;
66112;SDS011;52893;52.870;5.822;2022-10-31T05:00:10;117.68;;;9.30;;
66112;SDS011;52893;52.870;5.822;2022-10-31T05:02:43;62.75;;;8.00;;
66112;SDS011;52893;52.870;5.822;2022-10-31T05:05:11;49.88;;;9.73;;
66112;SDS011;52893;52.870;5.822;2022-10-31T05:07:41;32.20;;;7.78;;
66112;SDS011;52893;52.870;5.822;2022-10-31T05:10:09;47.10;;;8.23;;
66112;SDS011;52893;52.870;5.822;2022-10-31T05:12:44;49.30;;;7.80;;
66112;SDS011;52893;52.870;5.822;2022-10-31T05:18:17;53.60;;;8.90;;
66112;SDS011;52893;52.870;5.822;2022-10-31T05:21:23;40.45;;;8.02;;
66112;SDS011;52893;52.870;5.822;2022-10-31T05:23:54;58.05;;;7.78;;
66112;SDS011;52893;52.870;5.822;2022-10-31T05:26:23;140.65;;;9.30;;
66112;SDS011;52893;52.870;5.822;2022-10-31T05:28:53;58.72;;;8.50;;
66112;SDS011;52893;52.870;5.822;2022-10-31T05:31:20;98.93;;;9.43;;
66112;SDS011;52893;52.870;5.822;2022-10-31T05:33:49;78.78;;;9.40;;
66112;SDS011;52893;52.870;5.822;2022-10-31T05:36:42;30.48;;;7.95;;
66112;SDS011;52893;52.870;5.822;2022-10-31T05:39:15;24.75;;;9.80;;
66112;SDS011;52893;52.870;5.822;2022-10-31T05:41:46;36.15;;;10.18;;
66112;SDS011;52893;52.870;5.822;2022-10-31T05:44:19;59.03;;;10.45;;
66112;SDS011;52893;52.870;5.822;2022-10-31T05:46:54;27.45;;;9.98;;
66112;SDS011;52893;52.870;5.822;2022-10-31T05:49:47;52.63;;;9.65;;
66112;SDS011;52893;52.870;5.822;2022-10-31T05:52:33;86.22;;;10.48;;
66112;SDS011;52893;52.870;5.822;2022-10-31T05:55:09;74.18;;;10.30;;
66112;SDS011;52893;52.870;5.822;2022-10-31T05:57:41;148.05;;;12.55;;
66112;SDS011;52893;52.870;5.822;2022-10-31T06:00:08;147.95;;;7.80;;
66112;SDS011;52893;52.870;5.822;2022-10-31T06:02:47;235.82;;;9.98;;
66112;SDS011;52893;52.870;5.822;2022-10-31T06:05:22;160.38;;;7.93;;
66112;SDS011;52893;52.870;5.822;2022-10-31T06:07:50;107.30;;;7.47;;
66112;SDS011;52893;52.870;5.822;2022-10-31T06:10:18;84.68;;;7.22;;
66112;SDS011;52893;52.870;5.822;2022-10-31T06:12:49;93.03;;;7.53;;
66112;SDS011;52893;52.870;5.822;2022-10-31T06:15:40;105.85;;;6.65;;
66112;SDS011;52893;52.870;5.822;2022-10-31T06:18:08;134.77;;;6.95;;
66112;SDS011;52893;52.870;5.822;2022-10-31T06:20:45;92.15;;;5.93;;
66112;SDS011;52893;52.870;5.822;2022-10-31T06:23:12;123.15;;;6.82;;
66112;SDS011;52893;52.870;5.822;2022-10-31T06:25:43;120.55;;;7.13;;
66112;SDS011;52893;52.870;5.822;2022-10-31T06:28:14;144.40;;;10.82;;
66112;SDS011;52893;52.870;5.822;2022-10-31T06:30:51;72.53;;;6.35;;
66112;SDS011;52893;52.870;5.822;2022-10-31T06:33:18;92.25;;;8.73;;
66112;SDS011;52893;52.870;5.822;2022-10-31T06:35:57;118.57;;;10.52;;
66112;SDS011;52893;52.870;5.822;2022-10-31T06:38:25;94.40;;;9.68;;
66112;SDS011;52893;52.870;5.822;2022-10-31T06:40:53;138.93;;;9.02;;
66112;SDS011;52893;52.870;5.822;2022-10-31T06:43:23;149.30;;;10.32;;
66112;SDS011;52893;52.870;5.822;2022-10-31T06:46:01;99.97;;;9.60;;
66112;SDS011;52893;52.870;5.822;2022-10-31T06:48:42;101.18;;;11.05;;
66112;SDS011;52893;52.870;5.822;2022-10-31T06:51:16;60.75;;;10.63;;
66112;SDS011;52893;52.870;5.822;2022-10-31T06:53:43;104.35;;;13.32;;
66112;SDS011;52893;52.870;5.822;2022-10-31T06:56:14;57.95;;;10.82;;
66112;SDS011;52893;52.870;5.822;2022-10-31T06:58:46;42.17;;;11.85;;
66112;SDS011;52893;52.870;5.822;2022-10-31T07:01:15;64.03;;;11.02;;
66112;SDS011;52893;52.870;5.822;2022-10-31T07:03:42;69.88;;;11.93;;
66112;SDS011;52893;52.870;5.822;2022-10-31T07:06:09;76.45;;;10.32;;
66112;SDS011;52893;52.870;5.822;2022-10-31T07:08:38;60.38;;;11.48;;
66112;SDS011;52893;52.870;5.822;2022-10-31T07:11:05;63.35;;;11.35;;
66112;SDS011;52893;52.870;5.822;2022-10-31T07:13:34;138.43;;;12.93;;
66112;SDS011;52893;52.870;5.822;2022-10-31T07:16:07;73.80;;;14.05;;
66112;SDS011;52893;52.870;5.822;2022-10-31T07:18:36;84.25;;;12.48;;
66112;SDS011;52893;52.870;5.822;2022-10-31T07:21:03;33.03;;;11.00;;
66112;SDS011;52893;52.870;5.822;2022-10-31T07:23:31;59.60;;;11.60;;
66112;SDS011;52893;52.870;5.822;2022-10-31T07:26:17;45.40;;;11.25;;
66112;SDS011;52893;52.870;5.822;2022-10-31T07:28:48;41.88;;;13.65;;
66112;SDS011;52893;52.870;5.822;2022-10-31T07:31:19;44.30;;;12.40;;
66112;SDS011;52893;52.870;5.822;2022-10-31T07:33:47;32.90;;;11.80;;
66112;SDS011;52893;52.870;5.822;2022-10-31T07:36:26;27.65;;;13.23;;
66112;SDS011;52893;52.870;5.822;2022-10-31T07:38:57;29.40;;;14.25;;
66112;SDS011;52893;52.870;5.822;2022-10-31T07:41:25;25.70;;;12.80;;
66112;SDS011;52893;52.870;5.822;2022-10-31T07:43:54;28.00;;;14.95;;
66112;SDS011;52893;52.870;5.822;2022-10-31T07:46:41;34.88;;;17.30;;
66112;SDS011;52893;52.870;5.822;2022-10-31T07:49:27;38.95;;;17.48;;
66112;SDS011;52893;52.870;5.822;2022-10-31T07:52:13;31.80;;;15.55;;
66112;SDS011;52893;52.870;5.822;2022-10-31T07:55:18;25.85;;;14.63;;
66112;SDS011;52893;52.870;5.822;2022-10-31T07:57:54;23.83;;;11.32;;
66112;SDS011;52893;52.870;5.822;2022-10-31T08:00:24;22.13;;;11.63;;
66112;SDS011;52893;52.870;5.822;2022-10-31T08:02:58;20.95;;;10.35;;
66112;SDS011;52893;52.870;5.822;2022-10-31T08:08:31;17.98;;;9.20;;
66112;SDS011;52893;52.870;5.822;2022-10-31T08:10:59;19.60;;;11.55;;
66112;SDS011;52893;52.870;5.822;2022-10-31T08:13:26;21.75;;;10.90;;
66112;SDS011;52893;52.870;5.822;2022-10-31T08:15:54;19.65;;;9.65;;
66112;SDS011;52893;52.870;5.822;2022-10-31T08:18:29;21.60;;;9.18;;
66112;SDS011;52893;52.870;5.822;2022-10-31T08:20:57;22.92;;;11.57;;
66112;SDS011;52893;52.870;5.822;2022-10-31T08:23:24;29.30;;;12.95;;
66112;SDS011;52893;52.870;5.822;2022-10-31T08:25:54;29.70;;;14.30;;
66112;SDS011;52893;52.870;5.822;2022-10-31T08:28:22;36.97;;;15.57;;
66112;SDS011;52893;52.870;5.822;2022-10-31T08:30:52;29.77;;;15.10;;
66112;SDS011;52893;52.870;5.822;2022-10-31T08:33:39;23.67;;;12.88;;
66112;SDS011;52893;52.870;5.822;2022-10-31T08:36:18;26.65;;;13.60;;
66112;SDS011;52893;52.870;5.822;2022-10-31T08:38:54;28.42;;;15.50;;
66112;SDS011;52893;52.870;5.822;2022-10-31T08:41:21;27.48;;;14.07;;
66112;SDS011;52893;52.870;5.822;2022-10-31T08:43:49;24.58;;;14.73;;
66112;SDS011;52893;52.870;5.822;2022-10-31T08:46:16;23.35;;;13.80;;
66112;SDS011;52893;52.870;5.822;2022-10-31T08:48:46;24.73;;;14.07;;
66112;SDS011;52893;52.870;5.822;2022-10-31T08:51:15;26.23;;;13.77;;
66112;SDS011;52893;52.870;5.822;2022-10-31T08:53:43;25.35;;;14.70;;
66112;SDS011;52893;52.870;5.822;2022-10-31T08:56:33;24.58;;;13.75;;
66112;SDS011;52893;52.870;5.822;2022-10-31T08:59:02;25.73;;;13.23;;
66112;SDS011;52893;52.870;5.822;2022-10-31T09:01:45;25.35;;;12.55;;
66112;SDS011;52893;52.870;5.822;2022-10-31T09:04:13;22.42;;;12.23;;
66112;SDS011;52893;52.870;5.822;2022-10-31T09:06:41;18.00;;;11.57;;
66112;SDS011;52893;52.870;5.822;2022-10-31T09:09:08;24.17;;;12.38;;
66112;SDS011;52893;52.870;5.822;2022-10-31T09:11:37;20.90;;;11.48;;
66112;SDS011;52893;52.870;5.822;2022-10-31T09:14:10;19.27;;;11.48;;
66112;SDS011;52893;52.870;5.822;2022-10-31T09:16:56;22.00;;;12.27;;
66112;SDS011;52893;52.870;5.822;2022-10-31T09:19:32;23.75;;;11.80;;
66112;SDS011;52893;52.870;5.822;2022-10-31T09:21:59;19.50;;;11.25;;
66112;SDS011;52893;52.870;5.822;2022-10-31T09:24:27;18.52;;;11.38;;
66112;SDS011;52893;52.870;5.822;2022-10-31T09:26:54;21.00;;;11.38;;
66112;SDS011;52893;52.870;5.822;2022-10-31T09:29:27;17.60;;;10.68;;
66112;SDS011;52893;52.870;5.822;2022-10-31T09:31:58;18.27;;;10.85;;
66112;SDS011;52893;52.870;5.822;2022-10-31T09:34:27;16.75;;;10.25;;
66112;SDS011;52893;52.870;5.822;2022-10-31T09:37:15;16.85;;;9.95;;
66112;SDS011;52893;52.870;5.822;2022-10-31T09:39:42;20.23;;;12.27;;
66112;SDS011;52893;52.870;5.822;2022-10-31T09:42:26;17.38;;;10.60;;
66112;SDS011;52893;52.870;5.822;2022-10-31T09:45:10;20.73;;;12.43;;
66112;SDS011;52893;52.870;5.822;2022-10-31T09:47:46;24.55;;;11.93;;
66112;SDS011;52893;52.870;5.822;2022-10-31T09:50:29;17.90;;;11.40;;
66112;SDS011;52893;52.870;5.822;2022-10-31T09:53:22;23.08;;;12.25;;
66112;SDS011;52893;52.870;5.822;2022-10-31T09:55:52;18.38;;;12.25;;
66112;SDS011;52893;52.870;5.822;2022-10-31T09:58:22;20.50;;;12.40;;
66112;SDS011;52893;52.870;5.822;2022-10-31T10:00:51;20.48;;;12.35;;
66112;SDS011;52893;52.870;5.822;2022-10-31T10:03:24;25.75;;;13.63;;
66112;SDS011;52893;52.870;5.822;2022-10-31T10:06:04;19.65;;;12.65;;
66112;SDS011;52893;52.870;5.822;2022-10-31T10:08:59;17.40;;;13.13;;
66112;SDS011;52893;52.870;5.822;2022-10-31T10:11:57;20.73;;;11.48;;
66112;SDS011;52893;52.870;5.822;2022-10-31T10:14:36;19.02;;;12.45;;
66112;SDS011;52893;52.870;5.822;2022-10-31T10:17:24;19.52;;;12.73;;
66112;SDS011;52893;52.870;5.822;2022-10-31T10:23:02;21.33;;;12.65;;
66112;SDS011;52893;52.870;5.822;2022-10-31T10:25:52;19.10;;;11.68;;
66112;SDS011;52893;52.870;5.822;2022-10-31T10:28:28;18.55;;;12.00;;
66112;SDS011;52893;52.870;5.822;2022-10-31T10:31:05;23.65;;;11.88;;
66112;SDS011;52893;52.870;5.822;2022-10-31T10:33:35;21.00;;;12.07;;
66112;SDS011;52893;52.870;5.822;2022-10-31T10:36:06;19.75;;;11.10;;
66112;SDS011;52893;52.870;5.822;2022-10-31T10:38:39;18.30;;;10.65;;
66112;SDS011;52893;52.870;5.822;2022-10-31T10:41:18;20.17;;;10.70;;
66112;SDS011;52893;52.870;5.822;2022-10-31T10:43:48;21.02;;;11.60;;
66112;SDS011;52893;52.870;5.822;2022-10-31T10:46:17;24.30;;;11.98;;
66112;SDS011;52893;52.870;5.822;2022-10-31T10:49:06;23.98;;;11.73;;
66112;SDS011;52893;52.870;5.822;2022-10-31T10:51:40;22.13;;;12.25;;
66112;SDS011;52893;52.870;5.822;2022-10-31T10:54:33;20.02;;;11.30;;
66112;SDS011;52893;52.870;5.822;2022-10-31T10:57:11;20.58;;;12.15;;
66112;SDS011;52893;52.870;5.822;2022-10-31T10:59:48;23.83;;;12.18;;
66112;SDS011;52893;52.870;5.822;2022-10-31T11:02:17;27.48;;;13.32;;
66112;SDS011;52893;52.870;5.822;2022-10-31T11:04:47;23.00;;;12.73;;
66112;SDS011;52893;52.870;5.822;2022-10-31T11:07:17;26.33;;;13.77;;
66112;SDS011;52893;52.870;5.822;2022-10-31T11:09:44;22.70;;;12.75;;
66112;SDS011;52893;52.870;5.822;2022-10-31T11:12:17;29.13;;;14.88;;
66112;SDS011;52893;52.870;5.822;2022-10-31T11:14:48;26.40;;;14.23;;
66112;SDS011;52893;52.870;5.822;2022-10-31T11:17:20;34.22;;;14.65;;
66112;SDS011;52893;52.870;5.822;2022-10-31T11:20:02;30.10;;;15.15;;
66112;SDS011;52893;52.870;5.822;2022-10-31T11:22:31;26.88;;;14.30;;
66112;SDS011;52893;52.870;5.822;2022-10-31T11:24:59;23.23;;;12.95;;
66112;SDS011;52893;52.870;5.822;2022-10-31T11:27:27;22.75;;;13.18;;
66112;SDS011;52893;52.870;5.822;2022-10-31T11:30:03;26.92;;;12.88;;
66112;SDS011;52893;52.870;5.822;2022-10-31T11:32:31;24.48;;;12.68;;
66112;SDS011;52893;52.870;5.822;2022-10-31T11:35:00;22.42;;;11.63;;
66112;SDS011;52893;52.870;5.822;2022-10-31T11:37:31;22.88;;;11.35;;
66112;SDS011;52893;52.870;5.822;2022-10-31T11:40:02;26.05;;;13.48;;
66112;SDS011;52893;52.870;5.822;2022-10-31T11:42:36;20.30;;;11.60;;
66112;SDS011;52893;52.870;5.822;2022-10-31T11:45:07;29.33;;;12.77;;
66112;SDS011;52893;52.870;5.822;2022-10-31T11:47:42;22.90;;;12.27;;
66112;SDS011;52893;52.870;5.822;2022-10-31T11:50:18;31.60;;;12.52;;
66112;SDS011;52893;52.870;5.822;2022-10-31T11:52:47;19.83;;;11.80;;
66112;SDS011;52893;52.870;5.822;2022-10-31T11:55:16;27.02;;;12.70;;
66112;SDS011;52893;52.870;5.822;2022-10-31T11:57:57;26.98;;;13.32;;
66112;SDS011;52893;52.870;5.822;2022-10-31T12:00:25;25.70;;;12.40;;
66112;SDS011;52893;52.870;5.822;2022-10-31T12:03:03;24.02;;;12.98;;
66112;SDS011;52893;52.870;5.822;2022-10-31T12:05:33;24.08;;;12.45;;
66112;SDS011;52893;52.870;5.822;2022-10-31T12:08:00;30.95;;;13.38;;
66112;SDS011;52893;52.870;5.822;2022-10-31T12:10:30;28.92;;;13.10;;
66112;SDS011;52893;52.870;5.822;2022-10-31T12:13:05;26.77;;;14.13;;
66112;SDS011;52893;52.870;5.822;2022-10-31T12:15:41;23.58;;;12.32;;
66112;SDS011;52893;52.870;5.822;2022-10-31T12:18:36;24.00;;;12.02;;
66112;SDS011;52893;52.870;5.822;2022-10-31T12:21:15;30.08;;;14.35;;
66112;SDS011;52893;52.870;5.822;2022-10-31T12:23:55;27.58;;;13.02;;
66112;SDS011;52893;52.870;5.822;2022-10-31T12:26:30;22.63;;;11.10;;
66112;SDS011;52893;52.870;5.822;2022-10-31T12:29:12;20.20;;;10.65;;
66112;SDS011;52893;52.870;5.822;2022-10-31T12:31:49;22.00;;;11.25;;
66112;SDS011;52893;52.870;5.822;2022-10-31T12:34:34;21.45;;;11.80;;
66112;SDS011;52893;52.870;5.822;2022-10-31T12:37:13;21.73;;;11.85;;
66112;SDS011;52893;52.870;5.822;2022-10-31T12:39:51;18.90;;;9.80;;
66112;SDS011;52893;52.870;5.822;2022-10-31T12:42:33;23.58;;;10.45;;
66112;SDS011;52893;52.870;5.822;2022-10-31T12:45:21;18.67;;;9.63;;
66112;SDS011;52893;52.870;5.822;2022-10-31T12:48:07;16.42;;;9.02;;
66112;SDS011;52893;52.870;5.822;2022-10-31T12:53:23;13.93;;;8.00;;
66112;SDS011;52893;52.870;5.822;2022-10-31T12:56:06;17.42;;;8.98;;
66112;SDS011;52893;52.870;5.822;2022-10-31T12:58:44;21.02;;;8.93;;
66112;SDS011;52893;52.870;5.822;2022-10-31T13:01:16;20.27;;;8.75;;
66112;SDS011;52893;52.870;5.822;2022-10-31T13:06:18;17.50;;;8.88;;
66112;SDS011;52893;52.870;5.822;2022-10-31T13:08:49;14.60;;;7.45;;
66112;SDS011;52893;52.870;5.822;2022-10-31T13:11:19;13.98;;;7.93;;
66112;SDS011;52893;52.870;5.822;2022-10-31T13:13:53;14.63;;;8.27;;
66112;SDS011;52893;52.870;5.822;2022-10-31T13:16:28;22.92;;;7.63;;
66112;SDS011;52893;52.870;5.822;2022-10-31T13:18:57;15.05;;;7.72;;
66112;SDS011;52893;52.870;5.822;2022-10-31T13:21:30;13.88;;;8.38;;
66112;SDS011;52893;52.870;5.822;2022-10-31T13:24:03;17.10;;;7.53;;
66112;SDS011;52893;52.870;5.822;2022-10-31T13:26:38;14.38;;;7.63;;
66112;SDS011;52893;52.870;5.822;2022-10-31T13:29:11;15.30;;;7.45;;
66112;SDS011;52893;52.870;5.822;2022-10-31T13:31:45;18.30;;;7.45;;
66112;SDS011;52893;52.870;5.822;2022-10-31T13:34:17;16.52;;;7.75;;
66112;SDS011;52893;52.870;5.822;2022-10-31T13:36:52;15.52;;;7.65;;
66112;SDS011;52893;52.870;5.822;2022-10-31T13:39:30;15.75;;;8.15;;
66112;SDS011;52893;52.870;5.822;2022-10-31T13:42:10;21.02;;;8.70;;
66112;SDS011;52893;52.870;5.822;2022-10-31T13:44:42;15.15;;;7.97;;
66112;SDS011;52893;52.870;5.822;2022-10-31T13:47:22;12.63;;;7.40;;
66112;SDS011;52893;52.870;5.822;2022-10-31T13:49:51;12.90;;;7.13;;
66112;SDS011;52893;52.870;5.822;2022-10-31T13:52:30;12.80;;;7.20;;
66112;SDS011;52893;52.870;5.822;2022-10-31T13:54:57;18.00;;;7.70;;
66112;SDS011;52893;52.870;5.822;2022-10-31T13:57:28;15.90;;;7.50;;
66112;SDS011;52893;52.870;5.822;2022-10-31T13:59:58;21.48;;;7.43;;
66112;SDS011;52893;52.870;5.822;2022-10-31T14:02:43;13.55;;;7.68;;
66112;SDS011;52893;52.870;5.822;2022-10-31T14:05:18;16.38;;;7.35;;
66112;SDS011;52893;52.870;5.822;2022-10-31T14:07:49;12.40;;;6.80;;
66112;SDS011;52893;52.870;5.822;2022-10-31T14:10:21;14.90;;;6.78;;
66112;SDS011;52893;52.870;5.822;2022-10-31T14:12:52;21.73;;;6.57;;
66112;SDS011;52893;52.870;5.822;2022-10-31T14:15:29;12.25;;;6.50;;
66112;SDS011;52893;52.870;5.822;2022-10-31T14:17:58;13.52;;;6.30;;
66112;SDS011;52893;52.870;5.822;2022-10-31T14:20:35;11.63;;;6.70;;
66112;SDS011;52893;52.870;5.822;2022-10-31T14:26:07;11.88;;;6.35;;
66112;SDS011;52893;52.870;5.822;2022-10-31T14:28:45;10.85;;;6.22;;
66112;SDS011;52893;52.870;5.822;2022-10-31T14:31:27;12.98;;;6.70;;
66112;SDS011;52893;52.870;5.822;2022-10-31T14:34:00;12.75;;;6.78;;
66112;SDS011;52893;52.870;5.822;2022-10-31T14:36:30;13.95;;;7.28;;
66112;SDS011;52893;52.870;5.822;2022-10-31T14:39:07;11.88;;;6.53;;
66112;SDS011;52893;52.870;5.822;2022-10-31T14:41:45;14.13;;;6.63;;
66112;SDS011;52893;52.870;5.822;2022-10-31T14:44:24;13.23;;;6.05;;
66112;SDS011;52893;52.870;5.822;2022-10-31T14:47:19;13.00;;;6.22;;
66112;SDS011;52893;52.870;5.822;2022-10-31T14:50:02;13.25;;;6.68;;
66112;SDS011;52893;52.870;5.822;2022-10-31T14:52:39;12.88;;;5.85;;
66112;SDS011;52893;52.870;5.822;2022-10-31T14:55:11;12.10;;;5.50;;
66112;SDS011;52893;52.870;5.822;2022-10-31T14:57:42;14.57;;;6.15;;
66112;SDS011;52893;52.870;5.822;2022-10-31T15:00:15;13.10;;;5.60;;
66112;SDS011;52893;52.870;5.822;2022-10-31T15:02:46;13.23;;;6.20;;
66112;SDS011;52893;52.870;5.822;2022-10-31T15:05:22;17.10;;;6.43;;
66112;SDS011;52893;52.870;5.822;2022-10-31T15:07:50;12.75;;;6.55;;
66112;SDS011;52893;52.870;5.822;2022-10-31T15:10:22;12.60;;;6.13;;
66112;SDS011;52893;52.870;5.822;2022-10-31T15:12:51;12.63;;;6.32;;
66112;SDS011;52893;52.870;5.822;2022-10-31T15:15:19;19.40;;;6.28;;
66112;SDS011;52893;52.870;5.822;2022-10-31T15:17:49;9.95;;;5.63;;
66112;SDS011;52893;52.870;5.822;2022-10-31T15:20:20;12.45;;;6.85;;
66112;SDS011;52893;52.870;5.822;2022-10-31T15:22:52;19.67;;;7.07;;
66112;SDS011;52893;52.870;5.822;2022-10-31T15:25:22;15.75;;;6.70;;